Time;durP1;ratioP1;P1;durP2;ratioP2;P2;SDS_P1;SDS_P2;PMS_P1;PMS_P2;Temp;Humidity;BMP_temperature;BMP_pressure;BME280_temperature;BME280_humidity;BME280_pressure;Samples;Min_cycle;Max_cycle;Signal;HPM_P1;HPM_P2
2021/11/23 00:00:11;;;;;;;31.90;16.67;;;0.10;99.90;;;;;;5047993;28;20032;-63
2021/11/23 00:02:37;;;;;;;36.92;16.27;;;0.10;99.90;;;;;;5045808;28;20118;-63
2021/11/23 00:05:04;;;;;;;40.53;17.17;;;0.20;99.90;;;;;;5045087;28;20030;-61
2021/11/23 00:07:31;;;;;;;42.58;17.40;;;0.30;99.90;;;;;;5051667;28;20541;-63
2021/11/23 00:09:56;;;;;;;39.60;17.85;;;0.40;99.90;;;;;;5051176;28;20043;-63
2021/11/23 00:12:23;;;;;;;33.03;16.85;;;0.50;99.90;;;;;;5048196;28;20112;-63
2021/11/23 00:14:49;;;;;;;32.13;16.05;;;0.60;99.90;;;;;;5047174;28;20024;-63
2021/11/23 00:17:16;;;;;;;35.63;16.20;;;0.60;99.90;;;;;;5046321;28;20025;-64
2021/11/23 00:19:41;;;;;;;38.38;17.17;;;0.70;99.90;;;;;;5047934;28;20116;-63
2021/11/23 00:22:07;;;;;;;32.17;17.38;;;0.70;99.90;;;;;;5048238;28;20175;-63
2021/11/23 00:24:32;;;;;;;35.42;16.23;;;0.60;99.90;;;;;;5049503;28;20036;-63
2021/11/23 00:26:58;;;;;;;27.08;14.48;;;0.40;99.90;;;;;;5050692;28;20029;-61
2021/11/23 00:29:23;;;;;;;31.05;15.35;;;0.20;99.90;;;;;;5049199;28;20032;-59
2021/11/23 00:31:49;;;;;;;25.38;13.77;;;0.00;99.90;;;;;;5046002;28;20064;-62
2021/11/23 00:34:15;;;;;;;31.63;15.82;;;-0.10;99.90;;;;;;5050983;28;20512;-62
2021/11/23 00:36:40;;;;;;;31.48;14.23;;;-0.20;99.90;;;;;;5046995;28;20514;-63
2021/11/23 00:39:06;;;;;;;33.83;17.33;;;-0.20;99.90;;;;;;5050851;28;20098;-63
2021/11/23 00:41:31;;;;;;;34.05;15.20;;;-0.20;99.90;;;;;;5049782;28;20060;-63
2021/11/23 00:43:57;;;;;;;33.53;16.08;;;-0.10;99.90;;;;;;5049781;28;20025;-63
2021/11/23 00:46:23;;;;;;;38.15;17.42;;;0.00;99.90;;;;;;5051126;28;20040;-64
2021/11/23 00:48:48;;;;;;;33.58;16.05;;;0.20;99.90;;;;;;5048368;28;20027;-63
2021/11/23 00:51:14;;;;;;;35.60;16.73;;;0.30;99.90;;;;;;5042549;28;20067;-63
2021/11/23 00:53:40;;;;;;;36.08;16.17;;;0.30;99.90;;;;;;5048858;28;20037;-63
2021/11/23 00:56:07;;;;;;;35.50;14.57;;;0.20;99.90;;;;;;5051541;28;20039;-63
2021/11/23 00:58:33;;;;;;;31.95;16.33;;;0.10;99.90;;;;;;5047826;28;20483;-63
2021/11/23 01:01:00;;;;;;;37.20;15.50;;;0.10;99.90;;;;;;5046916;28;20033;-63
2021/11/23 01:03:28;;;;;;;32.50;15.68;;;0.00;99.90;;;;;;5047615;28;20037;-62
2021/11/23 01:05:57;;;;;;;32.63;15.13;;;0.10;99.90;;;;;;5044893;28;20028;-64
2021/11/23 01:08:23;;;;;;;36.45;17.23;;;0.20;99.90;;;;;;5046070;28;20041;-63
2021/11/23 01:10:50;;;;;;;35.83;18.40;;;0.30;99.90;;;;;;5049997;28;20112;-63
2021/11/23 01:13:17;;;;;;;37.35;17.33;;;0.10;99.90;;;;;;5051129;28;20372;-61
2021/11/23 01:15:42;;;;;;;40.17;17.65;;;0.00;99.90;;;;;;5049473;28;20024;-63
2021/11/23 01:18:08;;;;;;;37.47;17.52;;;0.00;99.90;;;;;;5045480;28;20040;-63
2021/11/23 01:20:36;;;;;;;33.25;15.88;;;-0.10;99.90;;;;;;5040347;28;20045;-63
2021/11/23 01:23:02;;;;;;;36.35;16.52;;;-0.20;99.90;;;;;;5049349;28;20423;-63
2021/11/23 01:25:28;;;;;;;33.75;16.48;;;-0.20;99.90;;;;;;5046285;28;20029;-63
2021/11/23 01:27:53;;;;;;;33.28;16.00;;;-0.30;99.90;;;;;;5045811;28;20035;-62
2021/11/23 01:30:19;;;;;;;30.63;15.57;;;-0.30;99.90;;;;;;5047458;28;20140;-63
2021/11/23 01:32:45;;;;;;;35.10;17.90;;;-0.30;99.90;;;;;;5050645;28;20082;-63
2021/11/23 01:35:12;;;;;;;32.80;17.63;;;-0.40;99.90;;;;;;5039427;28;20033;-63
2021/11/23 01:37:41;;;;;;;33.47;15.77;;;-0.30;99.90;;;;;;5048387;28;20047;-63
2021/11/23 01:40:08;;;;;;;34.92;17.00;;;-0.40;99.90;;;;;;5049650;28;20028;-63
2021/11/23 01:42:34;;;;;;;34.63;16.30;;;-0.40;99.90;;;;;;5050338;28;20425;-63
2021/11/23 01:45:00;;;;;;;35.60;16.98;;;-0.40;99.90;;;;;;5049903;28;20101;-64
2021/11/23 01:47:26;;;;;;;33.78;16.13;;;-0.40;99.90;;;;;;5041178;28;20387;-63
2021/11/23 01:49:51;;;;;;;33.28;15.85;;;-0.40;99.90;;;;;;5046899;28;20021;-63
2021/11/23 01:52:17;;;;;;;36.40;15.27;;;-0.40;99.90;;;;;;5047395;28;20560;-62
2021/11/23 01:54:43;;;;;;;33.03;17.00;;;-0.40;99.90;;;;;;5049571;28;20078;-63
2021/11/23 01:57:09;;;;;;;44.42;19.05;;;-0.40;99.90;;;;;;5026687;28;20552;-63
2021/11/23 01:59:35;;;;;;;38.17;16.70;;;-0.40;99.90;;;;;;5045662;28;20052;-63
2021/11/23 02:02:00;;;;;;;38.15;16.73;;;-0.40;99.90;;;;;;5049053;28;20110;-63
2021/11/23 02:04:26;;;;;;;33.40;16.58;;;-0.40;99.90;;;;;;5048734;28;20487;-63
2021/11/23 02:06:52;;;;;;;39.53;18.23;;;-0.40;99.90;;;;;;5042100;28;20044;-63
2021/11/23 02:09:17;;;;;;;36.03;17.80;;;-0.50;99.90;;;;;;5050497;28;20029;-61
2021/11/23 02:11:44;;;;;;;36.92;16.25;;;-0.50;99.90;;;;;;5049832;28;20037;-62
2021/11/23 02:14:10;;;;;;;37.47;15.98;;;-0.50;99.90;;;;;;5045964;28;20111;-63
2021/11/23 02:16:35;;;;;;;31.48;16.48;;;-0.50;99.90;;;;;;5044261;28;20116;-64
2021/11/23 02:19:01;;;;;;;35.03;18.02;;;-0.40;99.90;;;;;;5045788;28;20052;-63
2021/11/23 02:21:27;;;;;;;35.20;17.67;;;-0.20;99.90;;;;;;5046952;28;20017;-63
2021/11/23 02:23:53;;;;;;;36.10;16.65;;;-0.10;99.90;;;;;;5045784;28;20063;-62
2021/11/23 02:26:18;;;;;;;34.33;17.98;;;-0.10;99.90;;;;;;5048435;28;20436;-63
2021/11/23 02:28:44;;;;;;;37.22;18.08;;;-0.10;99.90;;;;;;5044228;28;20371;-62
2021/11/23 02:31:10;;;;;;;39.70;16.83;;;-0.10;99.90;;;;;;5050427;28;20033;-61
2021/11/23 02:33:37;;;;;;;31.95;17.05;;;-0.10;99.90;;;;;;5050605;28;20485;-62
2021/11/23 02:36:05;;;;;;;37.58;16.92;;;-0.10;99.90;;;;;;5053362;28;20037;-59
2021/11/23 02:38:32;;;;;;;27.90;16.65;;;-0.10;99.90;;;;;;5052845;28;20021;-61
2021/11/23 02:40:58;;;;;;;31.65;16.27;;;-0.10;99.90;;;;;;5052115;28;20092;-62
2021/11/23 02:43:24;;;;;;;32.10;15.52;;;0.00;99.90;;;;;;5051331;28;20483;-61
2021/11/23 02:45:52;;;;;;;29.73;14.77;;;0.00;99.90;;;;;;5051703;28;20029;-62
2021/11/23 02:48:19;;;;;;;27.38;16.15;;;-0.10;99.90;;;;;;5045202;28;20175;-62
2021/11/23 02:50:49;;;;;;;28.80;14.73;;;-0.10;99.90;;;;;;5049238;28;20021;-62
2021/11/23 02:53:14;;;;;;;31.42;15.10;;;-0.10;99.90;;;;;;5044100;28;20032;-62
2021/11/23 02:55:40;;;;;;;29.63;14.82;;;-0.10;99.90;;;;;;5049047;28;20103;-62
2021/11/23 02:58:07;;;;;;;32.10;15.23;;;0.10;99.90;;;;;;5052316;28;20541;-62
2021/11/23 03:00:34;;;;;;;31.58;15.95;;;0.10;99.90;;;;;;5052726;28;20489;-62
2021/11/23 03:03:00;;;;;;;26.50;14.88;;;0.10;99.90;;;;;;5051657;28;20029;-62
2021/11/23 03:05:27;;;;;;;35.38;15.38;;;0.10;99.90;;;;;;5051932;28;20025;-62
2021/11/23 03:07:54;;;;;;;27.98;15.32;;;0.20;99.90;;;;;;5047985;28;20021;-62
2021/11/23 03:10:21;;;;;;;37.72;18.20;;;0.20;99.90;;;;;;5052795;28;20025;-62
2021/11/23 03:12:49;;;;;;;29.85;14.93;;;0.10;99.90;;;;;;5051839;28;20033;-62
2021/11/23 03:15:15;;;;;;;27.02;15.02;;;0.00;99.90;;;;;;5051715;28;20109;-61
2021/11/23 03:17:41;;;;;;;30.73;15.40;;;-0.10;99.90;;;;;;5050968;28;20079;-61
2021/11/23 03:20:09;;;;;;;27.75;14.30;;;-0.30;99.90;;;;;;5047081;28;20029;-59
2021/11/23 03:22:35;;;;;;;35.33;16.83;;;-0.40;99.90;;;;;;5049016;28;20026;-62
2021/11/23 03:25:01;;;;;;;36.92;16.92;;;-0.50;99.90;;;;;;5075106;23;20047;-66
2021/11/23 03:27:27;;;;;;;34.75;16.52;;;-0.50;99.90;;;;;;5019720;28;20487;-67
2021/11/23 03:29:52;;;;;;;29.45;15.93;;;-0.50;99.90;;;;;;5014569;28;20057;-66
2021/11/23 03:32:18;;;;;;;36.63;17.25;;;-0.60;99.90;;;;;;5019006;28;20065;-68
2021/11/23 03:34:46;;;;;;;32.97;16.95;;;-0.60;99.90;;;;;;5019029;28;20446;-67
2021/11/23 03:37:18;;;;;;;30.67;16.42;;;-0.60;99.90;;;;;;5023920;28;20520;-67
2021/11/23 03:39:44;;;;;;;30.67;16.83;;;-0.60;99.90;;;;;;5013235;28;20414;-66
2021/11/23 03:42:10;;;;;;;37.25;17.75;;;-0.60;99.90;;;;;;5015865;28;20546;-67
2021/11/23 03:44:37;;;;;;;38.15;17.48;;;-0.70;99.90;;;;;;5012844;28;20117;-67
2021/11/23 03:47:08;;;;;;;43.53;18.58;;;-0.70;99.90;;;;;;5017121;28;20026;-67
2021/11/23 03:49:34;;;;;;;31.67;16.95;;;-0.70;99.90;;;;;;5013220;28;20026;-67
2021/11/23 03:52:00;;;;;;;35.08;17.17;;;-0.60;99.90;;;;;;5018674;28;20037;-67
2021/11/23 03:54:26;;;;;;;35.15;17.88;;;-0.70;99.90;;;;;;5016285;28;20435;-67
2021/11/23 03:56:52;;;;;;;33.28;16.70;;;-0.70;99.90;;;;;;5018656;28;20040;-67
2021/11/23 03:59:18;;;;;;;35.88;16.85;;;-0.60;99.90;;;;;;5016805;28;20037;-66
2021/11/23 04:01:44;;;;;;;32.63;16.83;;;-0.60;99.90;;;;;;5021248;28;20025;-66
2021/11/23 04:04:10;;;;;;;35.78;17.10;;;-0.60;99.90;;;;;;5017139;28;20040;-66
2021/11/23 04:06:36;;;;;;;37.65;18.38;;;-0.50;99.90;;;;;;5013150;28;20029;-67
2021/11/23 04:09:02;;;;;;;35.50;17.60;;;-0.40;99.90;;;;;;5018487;28;20030;-67
2021/11/23 04:11:28;;;;;;;33.83;16.50;;;-0.30;99.90;;;;;;5024641;28;20384;-67
2021/11/23 04:13:53;;;;;;;31.83;16.33;;;-0.30;99.90;;;;;;5022263;28;20031;-67
2021/11/23 04:16:21;;;;;;;35.78;17.17;;;-0.40;99.90;;;;;;5016269;28;20030;-67
2021/11/23 04:18:46;;;;;;;40.15;17.65;;;-0.30;99.90;;;;;;5023411;28;20022;-66
2021/11/23 04:21:12;;;;;;;32.42;16.52;;;-0.30;99.90;;;;;;5014511;28;20041;-67
2021/11/23 04:23:38;;;;;;;32.58;17.02;;;-0.20;99.90;;;;;;5013224;28;20040;-67
2021/11/23 04:26:04;;;;;;;38.35;16.17;;;-0.30;99.90;;;;;;5023773;28;20034;-67
2021/11/23 04:28:29;;;;;;;27.30;15.60;;;-0.40;99.90;;;;;;5016274;28;20105;-67
2021/11/23 04:30:55;;;;;;;35.38;15.63;;;-0.50;99.90;;;;;;5021242;28;20108;-66
2021/11/23 04:33:21;;;;;;;37.92;18.33;;;-0.60;99.90;;;;;;5021859;28;20402;-67
2021/11/23 04:35:46;;;;;;;27.90;14.70;;;-0.60;99.90;;;;;;5019748;28;20087;-67
2021/11/23 04:38:12;;;;;;;31.95;16.55;;;-0.60;99.90;;;;;;5021288;28;20021;-67
2021/11/23 04:40:38;;;;;;;28.23;15.27;;;-0.70;99.90;;;;;;5027749;28;20025;-67
2021/11/23 04:43:06;;;;;;;29.23;15.40;;;-0.70;99.90;;;;;;5026041;28;20521;-66
2021/11/23 04:45:32;;;;;;;33.67;15.98;;;-0.50;99.90;;;;;;5022449;28;20491;-66
2021/11/23 04:47:58;;;;;;;31.70;16.48;;;-0.40;99.90;;;;;;5026788;28;20025;-66
2021/11/23 04:50:24;;;;;;;31.88;15.27;;;-0.40;99.90;;;;;;5022261;28;20083;-67
2021/11/23 04:52:50;;;;;;;26.40;14.63;;;-0.30;99.90;;;;;;5023806;28;20400;-67
2021/11/23 04:55:15;;;;;;;34.67;15.65;;;-0.40;99.90;;;;;;5019183;28;20037;-65
2021/11/23 04:57:41;;;;;;;28.23;15.38;;;-0.30;99.90;;;;;;5017484;28;20056;-66
2021/11/23 05:00:09;;;;;;;30.13;15.40;;;-0.50;99.90;;;;;;5014988;28;20041;-66
2021/11/23 05:02:35;;;;;;;32.13;16.00;;;-0.60;99.90;;;;;;5016799;28;20419;-66
2021/11/23 05:05:00;;;;;;;36.38;16.75;;;-0.60;99.90;;;;;;5022771;28;20021;-67
2021/11/23 05:07:26;;;;;;;37.55;15.77;;;-0.70;99.90;;;;;;5020877;28;20038;-66
2021/11/23 05:09:52;;;;;;;37.25;17.85;;;-0.70;99.90;;;;;;5012833;28;20498;-66
2021/11/23 05:12:18;;;;;;;37.50;18.02;;;-0.60;99.90;;;;;;5018316;28;20037;-66
2021/11/23 05:14:43;;;;;;;39.88;17.45;;;-0.50;99.90;;;;;;5010953;28;20422;-66
2021/11/23 05:17:09;;;;;;;39.25;17.52;;;-0.60;99.90;;;;;;5020752;28;20026;-66
2021/11/23 05:19:34;;;;;;;39.80;16.75;;;-0.50;99.90;;;;;;5014269;28;20491;-66
2021/11/23 05:22:00;;;;;;;33.50;16.02;;;-0.50;99.90;;;;;;5016599;28;20040;-66
2021/11/23 05:24:26;;;;;;;34.05;15.88;;;-0.60;99.90;;;;;;5023611;28;20557;-66
2021/11/23 05:26:52;;;;;;;42.05;18.73;;;-0.60;99.90;;;;;;5020820;28;20038;-66
2021/11/23 05:29:17;;;;;;;32.72;17.05;;;-0.50;99.90;;;;;;5017694;28;20025;-66
2021/11/23 05:31:43;;;;;;;37.25;16.35;;;-0.50;99.90;;;;;;5012226;28;20038;-66
2021/11/23 05:34:08;;;;;;;37.03;17.50;;;-0.30;99.90;;;;;;5015634;28;20030;-65
2021/11/23 05:36:34;;;;;;;32.53;17.48;;;-0.30;99.90;;;;;;5016775;28;20033;-66
2021/11/23 05:38:59;;;;;;;31.63;15.50;;;-0.20;99.90;;;;;;5012757;28;20380;-66
2021/11/23 05:41:25;;;;;;;31.67;17.30;;;-0.10;99.90;;;;;;5015015;28;20064;-67
2021/11/23 05:43:51;;;;;;;39.65;18.70;;;0.00;99.90;;;;;;5020963;28;20080;-66
2021/11/23 05:46:17;;;;;;;50.45;18.85;;;0.10;99.90;;;;;;5016764;28;20025;-67
2021/11/23 05:48:42;;;;;;;35.80;17.17;;;0.20;99.90;;;;;;5015185;28;20400;-67
2021/11/23 05:51:08;;;;;;;37.53;16.77;;;0.20;99.90;;;;;;5010591;28;20679;-67
2021/11/23 05:53:36;;;;;;;30.83;16.40;;;0.20;99.90;;;;;;5015265;28;20041;-67
2021/11/23 05:56:03;;;;;;;39.58;17.42;;;0.30;99.90;;;;;;5020376;28;20045;-66
2021/11/23 05:58:28;;;;;;;30.35;17.40;;;0.40;99.90;;;;;;5013665;28;20033;-67
2021/11/23 06:00:54;;;;;;;32.97;17.38;;;0.50;99.90;;;;;;5019821;28;20056;-67
2021/11/23 06:03:21;;;;;;;34.35;16.83;;;0.50;99.90;;;;;;5015985;28;20059;-67
2021/11/23 06:05:46;;;;;;;38.00;17.35;;;0.60;99.90;;;;;;5019981;28;20078;-66
2021/11/23 06:08:12;;;;;;;33.97;16.33;;;0.60;99.90;;;;;;5021277;28;20026;-66
2021/11/23 06:10:38;;;;;;;38.47;17.77;;;0.60;99.90;;;;;;5019986;28;20493;-67
2021/11/23 06:13:03;;;;;;;33.47;17.83;;;0.70;99.90;;;;;;5030538;28;20036;-66
2021/11/23 06:15:29;;;;;;;34.08;17.58;;;0.70;99.90;;;;;;5021541;28;20030;-67
2021/11/23 06:18:02;;;;;;;37.72;18.55;;;0.80;99.90;;;;;;5019039;28;20030;-68
2021/11/23 06:20:29;;;;;;;31.42;17.42;;;0.80;99.90;;;;;;5017361;28;20034;-67
2021/11/23 06:23:00;;;;;;;42.42;19.15;;;0.80;99.90;;;;;;5017679;28;20104;-67
2021/11/23 06:25:27;;;;;;;34.03;17.98;;;0.80;99.90;;;;;;5020182;28;20037;-67
2021/11/23 06:27:54;;;;;;;39.50;17.42;;;0.80;99.90;;;;;;5014068;28;20031;-67
2021/11/23 06:30:20;;;;;;;37.60;17.92;;;0.70;99.90;;;;;;5016405;28;20029;-66
2021/11/23 06:32:47;;;;;;;36.05;18.30;;;0.80;99.90;;;;;;5015886;28;20048;-65
2021/11/23 06:35:13;;;;;;;37.47;17.30;;;0.80;99.90;;;;;;5021088;28;20721;-62
2021/11/23 06:37:39;;;;;;;38.13;18.23;;;0.80;99.90;;;;;;5023457;28;20042;-62
2021/11/23 06:40:06;;;;;;;44.97;20.95;;;0.90;99.90;;;;;;5018928;28;20041;-61
2021/11/23 06:42:32;;;;;;;51.72;19.27;;;1.00;99.90;;;;;;5013140;28;20040;-62
2021/11/23 06:44:58;;;;;;;41.78;19.95;;;1.00;99.90;;;;;;5012858;28;20022;-64
2021/11/23 06:47:23;;;;;;;42.17;19.52;;;1.10;99.90;;;;;;5018209;28;20499;-61
2021/11/23 06:49:51;;;;;;;40.60;19.55;;;1.20;99.90;;;;;;5022446;28;20395;-64
2021/11/23 06:52:18;;;;;;;41.33;19.38;;;1.20;99.90;;;;;;5026827;28;20026;-62
2021/11/23 06:54:44;;;;;;;45.08;20.85;;;1.30;99.90;;;;;;5017304;28;20026;-60
2021/11/23 06:57:09;;;;;;;38.67;19.75;;;1.40;99.90;;;;;;5016615;28;20511;-60
2021/11/23 06:59:35;;;;;;;43.88;21.90;;;1.40;99.90;;;;;;5021588;28;20040;-65
2021/11/23 07:02:00;;;;;;;47.35;21.17;;;1.40;99.90;;;;;;5020124;28;20030;-65
2021/11/23 07:04:26;;;;;;;45.30;21.23;;;1.40;99.90;;;;;;5023168;28;20537;-64
2021/11/23 07:06:52;;;;;;;48.63;21.40;;;1.30;99.90;;;;;;5025802;28;20160;-61
2021/11/23 07:09:17;;;;;;;40.47;20.45;;;1.40;99.90;;;;;;5024373;28;20026;-62
2021/11/23 07:11:43;;;;;;;37.60;18.77;;;1.40;99.90;;;;;;5013110;28;20026;-64
2021/11/23 07:14:10;;;;;;;40.53;20.27;;;1.40;99.90;;;;;;5027786;28;20033;-61
2021/11/23 07:16:36;;;;;;;47.67;20.50;;;1.40;99.90;;;;;;5019951;28;20032;-63
2021/11/23 07:19:02;;;;;;;43.03;20.45;;;1.50;99.90;;;;;;5024535;28;20033;-62
2021/11/23 07:21:28;;;;;;;51.28;21.83;;;1.60;99.90;;;;;;5019071;28;20053;-62
2021/11/23 07:23:57;;;;;;;51.83;21.30;;;1.50;99.90;;;;;;5013477;28;20049;-65
2021/11/23 07:26:23;;;;;;;49.13;21.50;;;1.50;99.90;;;;;;5016961;28;20116;-62
2021/11/23 07:28:49;;;;;;;39.97;21.02;;;1.50;99.90;;;;;;5024257;28;20457;-62
2021/11/23 07:31:14;;;;;;;41.80;20.80;;;1.50;99.90;;;;;;5015869;28;20048;-62
2021/11/23 07:33:40;;;;;;;52.10;22.40;;;1.50;99.90;;;;;;5013184;28;20034;-63
2021/11/23 07:36:06;;;;;;;40.22;20.23;;;1.50;99.90;;;;;;5023539;28;20034;-60
2021/11/23 07:38:31;;;;;;;43.65;21.33;;;1.60;99.90;;;;;;5018523;28;20849;-59
2021/11/23 07:40:57;;;;;;;45.22;20.48;;;1.60;99.90;;;;;;5021339;28;20436;-60
2021/11/23 07:43:22;;;;;;;44.10;21.85;;;1.70;99.90;;;;;;5007104;28;20018;-62
2021/11/23 07:45:48;;;;;;;46.60;21.27;;;1.80;99.90;;;;;;5016942;28;20036;-60
2021/11/23 07:48:14;;;;;;;42.55;20.95;;;1.80;99.90;;;;;;5028464;28;20026;-62
2021/11/23 07:50:40;;;;;;;44.92;21.42;;;1.80;99.90;;;;;;5013055;28;20431;-64
2021/11/23 07:53:06;;;;;;;44.83;21.42;;;1.80;99.90;;;;;;5015788;28;20036;-61
2021/11/23 07:55:32;;;;;;;41.05;20.55;;;1.80;99.90;;;;;;5021258;28;20487;-64
2021/11/23 07:57:58;;;;;;;44.40;20.73;;;1.80;99.90;;;;;;5016060;28;20512;-62
2021/11/23 08:00:25;;;;;;;48.67;25.88;;;1.90;99.90;;;;;;5011467;28;20040;-64
2021/11/23 08:02:51;;;;;;;51.13;21.00;;;1.90;99.90;;;;;;5012683;28;20455;-62
2021/11/23 08:05:17;;;;;;;39.88;19.48;;;1.90;99.90;;;;;;5022096;28;20060;-60
2021/11/23 08:07:42;;;;;;;46.05;20.25;;;1.90;99.90;;;;;;5012500;28;20081;-62
2021/11/23 08:10:08;;;;;;;44.33;22.42;;;1.90;99.90;;;;;;5016191;28;20037;-63
2021/11/23 08:12:34;;;;;;;45.90;22.95;;;2.00;99.90;;;;;;5012385;28;20484;-60
2021/11/23 08:15:00;;;;;;;49.60;21.60;;;2.00;99.90;;;;;;5002088;28;20033;-58
2021/11/23 08:17:25;;;;;;;44.38;21.55;;;2.00;99.90;;;;;;5016867;28;20042;-61
2021/11/23 08:19:51;;;;;;;44.38;21.10;;;2.10;99.90;;;;;;5016579;28;20038;-61
2021/11/23 08:22:17;;;;;;;47.85;22.73;;;2.10;99.90;;;;;;5014589;28;20049;-62
2021/11/23 08:24:42;;;;;;;51.45;22.00;;;2.20;99.90;;;;;;5011756;28;20022;-60
2021/11/23 08:27:09;;;;;;;44.10;20.85;;;2.40;99.90;;;;;;5016733;28;20030;-61
2021/11/23 08:29:34;;;;;;;47.33;21.90;;;2.40;99.90;;;;;;5016940;28;20495;-62
2021/11/23 08:32:00;;;;;;;51.10;22.77;;;2.40;99.90;;;;;;5017752;28;20034;-60
2021/11/23 08:34:28;;;;;;;49.45;21.42;;;2.40;99.90;;;;;;5017954;28;20026;-59
2021/11/23 08:36:54;;;;;;;50.92;23.02;;;2.50;99.90;;;;;;5030423;28;20538;-60
2021/11/23 08:39:20;;;;;;;49.40;23.92;;;2.60;99.90;;;;;;5029114;28;20108;-60
2021/11/23 08:41:46;;;;;;;46.38;23.77;;;2.60;99.90;;;;;;5016363;28;20231;-63
2021/11/23 08:44:12;;;;;;;50.13;24.05;;;2.60;99.90;;;;;;5010694;28;20034;-62
2021/11/23 08:46:38;;;;;;;42.33;21.27;;;2.60;99.90;;;;;;5021141;28;20495;-61
2021/11/23 08:49:04;;;;;;;52.38;23.45;;;2.60;99.90;;;;;;5023512;28;20040;-61
2021/11/23 08:51:31;;;;;;;45.20;22.55;;;2.60;99.90;;;;;;5023168;28;20030;-60
2021/11/23 08:53:56;;;;;;;49.60;21.95;;;2.50;99.90;;;;;;5011331;28;20427;-63
2021/11/23 08:56:22;;;;;;;50.53;22.75;;;2.50;99.90;;;;;;5016441;28;20037;-61
2021/11/23 08:58:52;;;;;;;49.28;22.27;;;2.60;99.90;;;;;;5016731;28;20033;-62
2021/11/23 09:01:24;;;;;;;44.15;22.88;;;2.70;99.90;;;;;;5029128;28;20396;-58
2021/11/23 09:03:49;;;;;;;50.00;22.15;;;2.80;99.90;;;;;;5024151;28;20026;-61
2021/11/23 09:06:15;;;;;;;50.25;22.73;;;2.80;99.90;;;;;;5029863;28;20021;-62
2021/11/23 09:08:51;;;;;;;50.75;24.55;;;2.90;99.90;;;;;;5021475;28;20438;-62
2021/11/23 09:11:17;;;;;;;49.63;23.70;;;2.90;99.90;;;;;;5020740;28;20025;-64
2021/11/23 09:13:42;;;;;;;48.30;22.05;;;2.90;99.90;;;;;;5013689;28;20668;-63
2021/11/23 09:16:08;;;;;;;47.78;23.55;;;2.90;99.90;;;;;;5016186;28;20462;-62
2021/11/23 09:18:33;;;;;;;44.67;22.95;;;3.00;99.90;;;;;;5010913;28;20476;-64
2021/11/23 09:20:59;;;;;;;53.17;23.67;;;3.00;99.90;;;;;;5011034;28;20059;-61
2021/11/23 09:23:26;;;;;;;48.60;21.77;;;3.00;99.90;;;;;;5016395;28;20076;-61
2021/11/23 09:28:23;;;;;;;46.00;22.45;;;2.90;99.90;;;;;;5046485;28;20040;-55
2021/11/23 09:30:48;;;;;;;53.58;22.67;;;3.10;99.90;;;;;;5048755;28;20098;-58
2021/11/23 09:33:15;;;;;;;48.92;23.00;;;3.20;99.90;;;;;;5048895;28;20430;-59
2021/11/23 09:35:41;;;;;;;51.67;23.23;;;3.20;99.90;;;;;;5049581;28;20465;-60
2021/11/23 09:38:07;;;;;;;49.03;22.70;;;3.30;99.90;;;;;;5049023;28;20125;-61
2021/11/23 09:40:33;;;;;;;53.55;24.73;;;3.40;99.90;;;;;;5041650;28;20482;-59
2021/11/23 09:42:59;;;;;;;51.50;23.55;;;3.40;99.90;;;;;;5048014;28;20025;-57
2021/11/23 09:45:25;;;;;;;57.13;24.58;;;3.40;99.90;;;;;;5044769;28;20032;-59
2021/11/23 09:47:51;;;;;;;51.10;23.67;;;3.40;99.90;;;;;;5049281;28;20569;-60
2021/11/23 09:50:17;;;;;;;46.92;21.80;;;3.50;99.90;;;;;;5049665;28;20113;-57
2021/11/23 09:52:43;;;;;;;48.53;22.08;;;3.50;99.90;;;;;;5049299;28;20025;-60
2021/11/23 09:55:11;;;;;;;50.38;23.98;;;3.60;99.90;;;;;;5029079;28;20037;-58
2021/11/23 09:57:37;;;;;;;45.05;21.95;;;3.50;99.90;;;;;;5043253;28;20079;-58
2021/11/23 10:00:22;;;;;;;50.85;23.08;;;3.50;99.90;;;;;;5048989;28;20475;-58
2021/11/23 10:02:48;;;;;;;45.63;20.98;;;3.60;99.90;;;;;;5047294;28;20100;-61
2021/11/23 10:05:15;;;;;;;47.55;21.65;;;3.60;99.90;;;;;;5049674;28;20100;-60
2021/11/23 10:07:43;;;;;;;52.97;23.40;;;3.60;99.90;;;;;;5048633;28;20474;-59
2021/11/23 10:10:16;;;;;;;52.67;23.48;;;3.70;99.90;;;;;;5048368;28;20441;-61
2021/11/23 10:12:54;;;;;;;50.00;22.85;;;3.80;99.90;;;;;;5043797;28;20509;-61
2021/11/23 10:15:25;;;;;;;45.63;22.17;;;3.90;99.90;;;;;;5048928;28;20544;-60
2021/11/23 10:17:54;;;;;;;46.08;21.67;;;4.10;99.90;;;;;;5045479;28;20024;-57
2021/11/23 10:20:26;;;;;;;44.88;21.17;;;4.20;99.90;;;;;;5048394;28;20040;-57
2021/11/23 10:22:53;;;;;;;40.17;20.77;;;4.20;99.90;;;;;;5048463;28;20033;-58
2021/11/23 10:25:19;;;;;;;43.72;20.85;;;4.20;99.90;;;;;;5047544;28;20056;-60
2021/11/23 10:27:45;;;;;;;46.42;23.25;;;4.20;99.90;;;;;;5047617;28;20076;-60
2021/11/23 10:30:11;;;;;;;48.88;21.65;;;4.30;99.90;;;;;;5048624;28;20056;-60
2021/11/23 10:32:45;;;;;;;43.63;21.00;;;4.40;99.90;;;;;;5047897;28;20116;-58
2021/11/23 10:35:17;;;;;;;45.72;22.92;;;4.40;99.90;;;;;;5048183;28;20459;-59
2021/11/23 10:37:43;;;;;;;39.55;19.35;;;4.50;99.90;;;;;;5047960;28;20032;-60
2021/11/23 10:40:24;;;;;;;44.03;21.33;;;4.60;99.90;;;;;;5045487;28;20029;-60
2021/11/23 10:42:52;;;;;;;51.72;24.15;;;4.60;99.90;;;;;;5038534;28;20010;-60
2021/11/23 10:45:18;;;;;;;48.20;23.23;;;4.60;99.90;;;;;;5041753;28;20736;-60
2021/11/23 10:47:48;;;;;;;48.33;23.63;;;4.80;99.90;;;;;;5048588;28;20056;-62
2021/11/23 10:50:17;;;;;;;46.83;22.52;;;4.90;99.90;;;;;;5047813;28;20033;-60
2021/11/23 10:52:46;;;;;;;44.50;22.55;;;4.80;99.90;;;;;;5049823;28;20027;-61
2021/11/23 10:55:21;;;;;;;46.30;20.70;;;5.00;99.90;;;;;;5049412;28;20033;-58
2021/11/23 10:57:46;;;;;;;;;;;5.10;99.90;;;;;;5033524;28;20032;-58
2021/11/23 11:00:13;;;;;;;45.78;20.40;;;5.00;99.90;;;;;;5051450;28;19909;-57
2021/11/23 11:02:39;;;;;;;45.22;20.27;;;5.10;99.90;;;;;;5051326;28;20517;-61
2021/11/23 11:05:09;;;;;;;45.75;21.45;;;5.10;99.90;;;;;;5051595;28;20475;-58
2021/11/23 11:07:37;;;;;;;45.78;20.90;;;5.10;99.90;;;;;;5033075;28;20449;-61
2021/11/23 11:10:06;;;;;;;48.33;21.33;;;5.10;99.90;;;;;;5033449;28;20037;-58
2021/11/23 11:12:32;;;;;;;43.15;19.88;;;5.20;99.90;;;;;;5051874;28;20483;-57
2021/11/23 11:14:58;;;;;;;44.42;20.92;;;5.20;99.90;;;;;;5033167;28;20032;-61
2021/11/23 11:17:25;;;;;;;47.67;21.13;;;5.20;99.90;;;;;;5050522;28;20036;-56
2021/11/23 11:19:52;;;;;;;38.05;19.20;;;5.20;99.90;;;;;;5050370;28;20038;-58
2021/11/23 11:22:21;;;;;;;37.58;19.27;;;5.20;99.90;;;;;;5046507;28;20032;-60
2021/11/23 11:25:03;;;;;;;38.03;19.70;;;5.20;99.90;;;;;;5051077;28;20556;-60
2021/11/23 11:27:36;;;;;;;42.20;20.77;;;5.20;99.90;;;;;;5049392;28;20025;-59
2021/11/23 11:30:20;;;;;;;46.63;21.10;;;5.30;99.90;;;;;;5051246;28;20029;-60
2021/11/23 11:32:49;;;;;;;36.28;19.65;;;5.40;99.90;;;;;;5051364;28;20029;-57
2021/11/23 11:35:21;;;;;;;38.15;20.52;;;5.50;99.90;;;;;;5048089;28;20048;-59
2021/11/23 11:37:46;;;;;;;43.78;20.77;;;5.40;99.90;;;;;;5050786;28;20025;-58
2021/11/23 11:40:35;;;;;;;43.10;20.27;;;5.40;99.90;;;;;;5050821;28;20021;-60
2021/11/23 11:43:06;;;;;;;39.63;20.27;;;5.50;99.90;;;;;;5046737;28;20470;-59
2021/11/23 11:45:46;;;;;;;44.53;20.38;;;5.70;99.90;;;;;;5044830;28;20033;-60
2021/11/23 11:48:41;;;;;;;39.72;19.55;;;5.90;99.90;;;;;;5051665;28;20047;-59
2021/11/23 11:51:14;;;;;;;39.00;20.33;;;6.00;99.90;;;;;;5050499;28;20029;-58
2021/11/23 11:53:49;;;;;;;51.25;20.05;;;6.10;99.90;;;;;;5051364;28;20025;-58
2021/11/23 11:56:34;;;;;;;49.03;20.65;;;6.10;99.90;;;;;;5048774;28;20464;-56
2021/11/23 11:59:00;;;;;;;48.25;21.27;;;6.10;99.90;;;;;;5050837;28;20044;-58
2021/11/23 12:01:37;;;;;;;39.53;19.63;;;6.30;99.90;;;;;;5048186;28;20033;-58
2021/11/23 12:04:04;;;;;;;38.97;20.65;;;6.50;99.90;;;;;;5050559;28;20108;-60
2021/11/23 12:09:29;;;;;;;46.50;20.38;;;6.70;99.90;;;;;;5046759;28;20044;-58
2021/11/23 12:12:14;;;;;;;45.40;21.80;;;6.80;99.90;;;;;;5045614;28;20487;-60
2021/11/23 12:14:52;;;;;;;44.33;21.80;;;6.70;99.90;;;;;;5027666;28;20072;-60
2021/11/23 12:17:36;;;;;;;46.28;20.92;;;6.70;99.90;;;;;;5050609;28;20517;-61
2021/11/23 12:20:15;;;;;;;42.43;21.07;;;6.70;99.90;;;;;;5048806;28;20036;-61
2021/11/23 12:22:46;;;;;;;41.38;20.40;;;6.70;99.90;;;;;;5049660;28;20029;-60
2021/11/23 12:25:13;;;;;;;56.33;23.33;;;6.70;99.90;;;;;;5050233;28;20025;-59
2021/11/23 12:27:45;;;;;;;42.80;21.70;;;6.60;99.90;;;;;;5046989;28;20379;-60
2021/11/23 12:30:17;;;;;;;49.78;23.42;;;6.70;99.90;;;;;;5047296;28;20025;-61
2021/11/23 12:32:43;;;;;;;41.38;21.73;;;6.70;99.90;;;;;;5050961;28;20037;-58
2021/11/23 12:35:10;;;;;;;53.67;21.98;;;6.70;99.90;;;;;;5050080;28;20075;-61
2021/11/23 12:37:47;;;;;;;50.78;22.60;;;6.70;99.90;;;;;;5049004;28;20064;-60